Time;durP1;ratioP1;P1;durP2;ratioP2;P2;SDS_P1;SDS_P2;PMS_P1;PMS_P2;Temp;Humidity;BMP_temperature;BMP_pressure;BME280_temperature;BME280_humidity;BME280_pressure;Samples;Min_cycle;Max_cycle;Signal;HPM_P1;HPM_P2
2022/05/21 00:00:28;;;;;;;4.90;2.37;;;12.00;99.90;;;;;;6068806;23;20643;-91
2022/05/21 00:02:53;;;;;;;6.20;3.30;;;12.10;99.90;;;;;;6093799;23;20533;-89
2022/05/21 00:05:21;;;;;;;4.30;3.27;;;12.20;99.90;;;;;;6066916;23;20205;-90
2022/05/21 00:07:47;;;;;;;2.87;2.13;;;12.40;99.90;;;;;;6067490;23;20252;-89
2022/05/21 00:10:16;;;;;;;9.37;2.67;;;12.50;99.90;;;;;;6068873;23;20249;-90
2022/05/21 00:12:43;;;;;;;7.30;2.73;;;12.50;99.90;;;;;;6094144;23;20630;-89
2022/05/21 00:15:11;;;;;;;2.93;2.47;;;12.60;99.90;;;;;;6092953;23;20654;-89
2022/05/21 00:17:37;;;;;;;1.93;1.60;;;12.70;99.90;;;;;;6092830;23;20204;-91
2022/05/21 00:20:03;;;;;;;6.53;3.63;;;12.80;99.90;;;;;;6093247;23;20262;-92
2022/05/21 00:22:29;;;;;;;11.63;4.13;;;12.80;99.90;;;;;;6094702;23;20211;-89
2022/05/21 00:24:55;;;;;;;5.17;3.13;;;12.90;99.90;;;;;;6095383;23;20584;-90
2022/05/21 00:27:21;;;;;;;6.23;4.60;;;12.90;99.90;;;;;;6093618;23;20271;-90
2022/05/21 00:29:47;;;;;;;8.83;4.10;;;13.00;99.90;;;;;;6066933;23;20298;-90
2022/05/21 00:32:13;;;;;;;5.33;3.77;;;13.00;99.90;;;;;;6069770;23;20616;-90
2022/05/21 00:34:38;;;;;;;12.37;3.87;;;13.10;99.90;;;;;;6094331;23;20683;-91
2022/05/21 00:37:04;;;;;;;4.20;3.60;;;13.20;99.90;;;;;;6092362;23;20481;-90
2022/05/21 00:39:30;;;;;;;12.77;3.67;;;13.30;99.90;;;;;;6092712;23;20214;-91
2022/05/21 00:42:07;;;;;;;8.70;2.97;;;13.40;99.90;;;;;;6067537;23;20291;-89
2022/05/21 00:44:33;;;;;;;7.00;3.40;;;13.50;99.90;;;;;;6092982;23;20203;-91
2022/05/21 00:46:59;;;;;;;3.27;2.97;;;13.50;99.90;;;;;;6094445;23;20192;-90
2022/05/21 00:49:31;;;;;;;6.50;3.47;;;13.60;99.90;;;;;;6092604;23;20223;-89
2022/05/21 00:52:05;;;;;;;7.63;3.83;;;13.70;99.90;;;;;;6093737;23;20564;-89
2022/05/21 00:54:34;;;;;;;8.00;3.10;;;13.70;99.90;;;;;;6092288;23;20348;-90
2022/05/21 00:57:31;;;;;;;7.33;2.77;;;13.80;99.90;;;;;;6090974;23;20245;-90
2022/05/21 01:00:05;;;;;;;7.30;2.83;;;13.90;99.90;;;;;;6090310;23;20717;-89
2022/05/21 01:02:38;;;;;;;6.03;2.27;;;14.00;99.90;;;;;;6094288;23;20195;-90
2022/05/21 01:05:08;;;;;;;5.47;3.10;;;14.00;99.90;;;;;;6095025;23;20204;-91
2022/05/21 01:07:40;;;;;;;2.70;2.33;;;14.00;99.90;;;;;;6093921;23;20200;-89
2022/05/21 01:10:06;;;;;;;7.77;2.20;;;14.00;99.90;;;;;;6094756;23;20149;-89
2022/05/21 01:12:38;;;;;;;6.03;2.17;;;14.10;99.90;;;;;;6068593;23;20287;-90
2022/05/21 01:15:09;;;;;;;2.70;2.40;;;14.00;99.90;;;;;;6093915;23;20196;-92
2022/05/21 01:17:35;;;;;;;1.50;1.40;;;14.00;99.90;;;;;;6095148;23;20200;-91
2022/05/21 01:20:07;;;;;;;5.10;3.30;;;14.00;99.90;;;;;;6095005;23;20254;-90
2022/05/21 01:22:56;;;;;;;6.83;3.30;;;14.10;99.90;;;;;;6095859;23;20153;-90
2022/05/21 01:25:24;;;;;;;3.07;2.50;;;14.10;99.90;;;;;;6095296;23;20148;-90
2022/05/21 01:27:55;;;;;;;10.33;3.07;;;14.10;99.90;;;;;;6095849;23;20195;-91
2022/05/21 01:30:29;;;;;;;4.03;2.57;;;14.10;99.90;;;;;;6095341;23;20248;-90
2022/05/21 01:32:55;;;;;;;8.10;3.00;;;14.10;99.90;;;;;;6097283;23;20196;-89
2022/05/21 01:35:21;;;;;;;2.70;1.73;;;14.10;99.90;;;;;;6072079;23;20559;-90
2022/05/21 01:37:47;;;;;;;5.13;1.67;;;14.10;99.90;;;;;;6097633;23;20207;-90
2022/05/21 01:40:15;;;;;;;1.97;1.63;;;14.10;99.90;;;;;;6073188;23;20161;-92
2022/05/21 01:46:03;;;;;;;5.63;2.33;;;14.10;99.90;;;;;;6097311;23;20184;-91
2022/05/21 01:48:30;;;;;;;6.57;2.07;;;14.00;99.90;;;;;;6069979;23;20219;-89
2022/05/21 01:50:56;;;;;;;13.50;2.67;;;14.10;99.90;;;;;;6096798;23;20291;-91
2022/05/21 01:53:24;;;;;;;7.50;1.80;;;14.10;99.90;;;;;;6071347;23;20251;-88
2022/05/21 01:55:51;;;;;;;4.30;1.87;;;14.10;99.90;;;;;;6096342;23;20251;-92
2022/05/21 01:58:18;;;;;;;5.50;1.37;;;14.20;99.90;;;;;;6071846;23;20165;-91
2022/05/21 02:00:44;;;;;;;6.97;2.67;;;14.20;99.90;;;;;;6094254;23;20160;-91
2022/05/21 02:03:11;;;;;;;6.77;2.13;;;14.30;99.90;;;;;;6069782;23;20209;-90
2022/05/21 02:05:37;;;;;;;1.40;0.93;;;14.30;99.90;;;;;;6094661;23;20200;-92
2022/05/21 02:08:04;;;;;;;8.70;2.27;;;14.30;99.90;;;;;;6093906;23;20204;-91
2022/05/21 02:10:31;;;;;;;6.40;1.80;;;14.30;99.90;;;;;;6070205;23;20165;-90
2022/05/21 02:12:57;;;;;;;2.30;0.97;;;14.30;99.90;;;;;;6069613;23;20167;-90
2022/05/21 02:15:22;;;;;;;3.60;2.10;;;14.30;99.90;;;;;;6092964;23;20638;-89
2022/05/21 02:17:48;;;;;;;1.43;1.33;;;14.30;99.90;;;;;;6069628;23;20646;-89
2022/05/21 02:20:15;;;;;;;4.93;1.60;;;14.30;99.90;;;;;;6071014;23;20231;-89
2022/05/21 02:22:40;;;;;;;2.43;0.60;;;14.30;99.90;;;;;;6095151;23;20245;-89
2022/05/21 02:25:08;;;;;;;8.63;4.23;;;14.30;99.90;;;;;;6094766;23;20197;-88
2022/05/21 02:27:34;;;;;;;3.67;1.37;;;14.30;99.90;;;;;;6094865;23;20279;-89
2022/05/21 02:30:01;;;;;;;7.53;2.80;;;14.30;99.90;;;;;;6093902;23;20208;-89
2022/05/21 02:32:27;;;;;;;2.27;1.50;;;14.30;99.90;;;;;;6095178;23;20197;-90
2022/05/21 02:34:52;;;;;;;3.10;1.50;;;14.40;99.90;;;;;;6095664;23;20534;-89
2022/05/21 02:40:04;;;;;;;3.50;1.73;;;14.40;99.90;;;;;;6094617;23;20164;-91
2022/05/21 02:42:48;;;;;;;4.37;1.13;;;14.40;99.90;;;;;;6069304;23;20236;-91
2022/05/21 02:45:20;;;;;;;4.17;1.53;;;14.40;99.90;;;;;;6093540;23;20821;-91
2022/05/21 02:47:48;;;;;;;12.03;2.67;;;14.30;99.90;;;;;;6092069;23;20216;-91
2022/05/21 02:50:16;;;;;;;4.67;2.70;;;14.40;99.90;;;;;;6092586;23;20211;-92
2022/05/21 02:52:42;;;;;;;5.80;1.33;;;14.40;99.90;;;;;;6092345;23;20258;-91
2022/05/21 02:55:09;;;;;;;2.70;2.17;;;14.30;99.90;;;;;;6069781;23;20594;-92
2022/05/21 02:57:35;;;;;;;2.30;1.90;;;14.30;99.90;;;;;;6092572;23;20211;-88
2022/05/21 03:00:07;;;;;;;5.20;1.27;;;14.30;99.90;;;;;;6092266;23;20205;-80
2022/05/21 03:02:33;;;;;;;0.93;0.93;;;14.30;99.90;;;;;;6091792;23;20196;-80
2022/05/21 03:04:58;;;;;;;4.37;1.20;;;14.30;99.90;;;;;;6091833;23;20649;-82
2022/05/21 03:07:24;;;;;;;1.50;1.40;;;14.30;99.90;;;;;;6093238;23;20243;-81
2022/05/21 03:12:35;;;;;;;7.20;1.90;;;14.20;99.90;;;;;;6091837;23;20200;-83
2022/05/21 03:15:01;;;;;;;1.40;0.63;;;14.20;99.90;;;;;;6067514;23;20224;-83
2022/05/21 03:17:28;;;;;;;3.33;1.00;;;14.20;99.90;;;;;;6091507;23;20192;-85
2022/05/21 03:19:53;;;;;;;2.37;0.73;;;14.10;99.90;;;;;;6091080;23;20268;-80
2022/05/21 03:22:19;;;;;;;2.23;1.10;;;14.10;99.90;;;;;;6067762;23;20196;-81
2022/05/21 03:24:45;;;;;;;5.93;1.80;;;14.00;99.90;;;;;;6093426;23;20542;-83
2022/05/21 03:27:11;;;;;;;0.90;0.60;;;14.00;99.90;;;;;;6067970;23;20201;-80
2022/05/21 03:29:37;;;;;;;9.47;1.23;;;14.00;99.90;;;;;;6067159;23;20595;-83
2022/05/21 03:32:04;;;;;;;1.90;0.93;;;14.00;99.90;;;;;;6091437;23;20192;-80
2022/05/21 03:34:30;;;;;;;1.03;0.70;;;14.00;99.90;;;;;;6067799;23;20161;-81
2022/05/21 03:36:56;;;;;;;3.50;1.50;;;14.00;99.90;;;;;;6092097;23;20188;-84
2022/05/21 03:39:22;;;;;;;2.20;0.67;;;14.00;99.90;;;;;;6091587;23;20207;-81
2022/05/21 03:41:47;;;;;;;3.23;1.13;;;14.00;99.90;;;;;;6067454;23;20732;-81
2022/05/21 03:44:13;;;;;;;1.40;0.93;;;14.00;99.90;;;;;;6067327;23;20197;-82
2022/05/21 03:46:39;;;;;;;4.27;1.10;;;14.00;99.90;;;;;;6091105;23;20402;-79
2022/05/21 03:49:05;;;;;;;1.80;1.07;;;14.00;99.90;;;;;;6091833;23;20196;-83
2022/05/21 03:51:31;;;;;;;1.40;0.70;;;14.00;99.90;;;;;;6067011;23;20279;-82
2022/05/21 03:53:57;;;;;;;2.93;1.20;;;14.00;99.90;;;;;;6067281;23;20678;-82
2022/05/21 03:56:23;;;;;;;4.37;1.37;;;13.90;99.90;;;;;;6090924;23;20250;-82
2022/05/21 03:58:49;;;;;;;5.03;1.30;;;13.90;99.90;;;;;;6067520;23;20203;-82
2022/05/21 04:01:15;;;;;;;6.23;1.47;;;13.90;99.90;;;;;;6091952;23;20173;-84
2022/05/21 04:03:41;;;;;;;2.20;1.57;;;13.90;99.90;;;;;;6092825;23;20208;-82
2022/05/21 04:06:07;;;;;;;1.23;0.83;;;13.90;99.90;;;;;;6092161;23;20197;-81
2022/05/21 04:08:33;;;;;;;1.30;1.20;;;13.90;99.90;;;;;;6091945;23;20296;-82
2022/05/21 04:10:59;;;;;;;4.97;0.70;;;13.90;99.90;;;;;;6092354;23;20340;-82
2022/05/21 04:13:26;;;;;;;2.10;1.70;;;14.00;99.90;;;;;;6092526;23;20769;-82
2022/05/21 04:15:52;;;;;;;3.00;0.90;;;14.00;99.90;;;;;;6092914;23;20191;-80
2022/05/21 04:18:18;;;;;;;1.23;0.90;;;13.90;99.90;;;;;;6066950;23;20205;-81
2022/05/21 04:20:45;;;;;;;0.47;0.47;;;13.90;99.90;;;;;;6066782;23;20229;-81
2022/05/21 04:23:11;;;;;;;1.03;0.83;;;13.90;99.90;;;;;;6092227;23;20227;-81
2022/05/21 04:25:37;;;;;;;2.53;1.50;;;13.90;99.90;;;;;;6066883;23;20642;-81
2022/05/21 04:28:03;;;;;;;2.30;1.03;;;14.00;99.90;;;;;;6093693;23;20193;-79
2022/05/21 04:30:29;;;;;;;1.20;0.80;;;13.90;99.90;;;;;;6067689;23;20216;-84
2022/05/21 04:32:58;;;;;;;9.80;2.00;;;13.90;99.90;;;;;;6092239;23;20197;-82
2022/05/21 04:35:25;;;;;;;3.90;1.23;;;14.00;99.90;;;;;;6092006;23;20639;-81
2022/05/21 04:37:52;;;;;;;1.57;1.00;;;14.10;99.90;;;;;;6090847;23;20204;-83
2022/05/21 04:40:20;;;;;;;2.73;1.13;;;14.10;99.90;;;;;;6090569;23;20164;-79
2022/05/21 04:42:46;;;;;;;3.03;1.10;;;14.10;99.90;;;;;;6096310;23;20181;-81
2022/05/21 04:45:14;;;;;;;0.73;0.73;;;14.20;99.90;;;;;;6066560;23;20263;-81
2022/05/21 04:47:40;;;;;;;4.90;1.47;;;14.10;99.90;;;;;;6090408;23;20275;-82
2022/05/21 04:50:07;;;;;;;9.00;1.70;;;14.20;99.90;;;;;;6091977;23;20236;-80
2022/05/21 04:52:34;;;;;;;0.70;0.70;;;14.20;99.90;;;;;;6091766;23;20491;-81
2022/05/21 04:55:06;;;;;;;0.87;0.83;;;14.20;99.90;;;;;;6090945;23;20153;-81
2022/05/21 04:57:32;;;;;;;3.80;0.47;;;14.20;99.90;;;;;;6090020;23;20258;-83
2022/05/21 04:59:57;;;;;;;1.53;1.20;;;14.20;99.90;;;;;;6090622;23;20192;-82
2022/05/21 05:02:23;;;;;;;3.60;1.53;;;14.20;99.90;;;;;;6090693;23;20193;-81
2022/05/21 05:04:49;;;;;;;1.80;0.50;;;14.20;99.90;;;;;;6066699;23;20772;-81
2022/05/21 05:07:19;;;;;;;5.40;2.47;;;14.20;99.90;;;;;;6091289;23;20183;-81
2022/05/21 05:09:46;;;;;;;8.50;1.17;;;14.30;99.90;;;;;;6090553;23;20521;-80
2022/05/21 05:12:12;;;;;;;11.90;1.97;;;14.30;99.90;;;;;;6066485;23;20206;-81
2022/05/21 05:14:38;;;;;;;0.67;0.40;;;14.30;99.90;;;;;;6091450;23;20253;-84
2022/05/21 05:17:06;;;;;;;1.40;1.13;;;14.30;99.90;;;;;;6066546;23;20212;-80
2022/05/21 05:19:33;;;;;;;5.73;1.70;;;14.30;99.90;;;;;;6089673;23;20201;-82
2022/05/21 05:21:59;;;;;;;6.13;1.50;;;14.30;99.90;;;;;;6090882;23;20339;-81
2022/05/21 05:24:25;;;;;;;4.37;0.97;;;14.40;99.90;;;;;;6090488;23;20280;-81
2022/05/21 05:26:51;;;;;;;8.27;1.50;;;14.40;99.90;;;;;;6066289;23;20196;-83
2022/05/21 05:29:17;;;;;;;1.63;0.77;;;14.60;99.90;;;;;;6065838;23;20216;-83
2022/05/21 05:31:42;;;;;;;1.90;1.40;;;14.60;99.90;;;;;;6065968;23;20254;-81
2022/05/21 05:34:08;;;;;;;3.47;1.20;;;14.80;99.90;;;;;;6090611;23;20252;-79
2022/05/21 05:36:34;;;;;;;1.87;0.83;;;14.90;99.90;;;;;;6090212;23;20199;-82
2022/05/21 05:39:00;;;;;;;1.33;1.23;;;15.10;99.90;;;;;;6090255;23;20518;-80
2022/05/21 05:41:27;;;;;;;7.70;1.67;;;15.70;99.90;;;;;;6090487;23;20519;-83
2022/05/21 05:43:54;;;;;;;2.50;1.10;;;15.90;99.90;;;;;;6066544;23;20639;-81
2022/05/21 05:46:20;;;;;;;3.10;1.57;;;15.90;99.90;;;;;;6090520;23;20168;-83
2022/05/21 05:48:46;;;;;;;2.80;1.13;;;15.80;99.90;;;;;;6091520;23;20227;-80
2022/05/21 05:51:13;;;;;;;1.03;0.73;;;15.70;99.90;;;;;;6090164;23;20200;-79
2022/05/21 05:53:39;;;;;;;1.00;0.80;;;16.20;99.90;;;;;;6065118;23;20635;-80
2022/05/21 05:56:08;;;;;;;4.03;1.40;;;17.90;99.90;;;;;;6064797;23;20255;-83
2022/05/21 06:01:20;;;;;;;11.63;1.63;;;17.50;99.90;;;;;;6089649;23;20752;-82
2022/05/21 06:03:48;;;;;;;5.20;1.60;;;17.50;99.90;;;;;;6067049;23;20195;-80
2022/05/21 06:06:16;;;;;;;6.03;1.67;;;17.80;99.90;;;;;;6066355;23;20854;-82
2022/05/21 06:08:43;;;;;;;5.03;1.40;;;17.80;99.90;;;;;;6090890;23;20771;-82
2022/05/21 06:11:13;;;;;;;10.30;2.67;;;17.60;99.90;;;;;;6089510;23;20204;-81
2022/05/21 06:13:39;;;;;;;2.57;1.37;;;18.00;99.90;;;;;;6065467;23;20212;-81
2022/05/21 06:16:05;;;;;;;3.03;1.10;;;17.60;99.90;;;;;;6067877;23;20157;-80
2022/05/21 06:18:31;;;;;;;3.67;0.90;;;17.20;99.90;;;;;;6091181;23;20209;-82
2022/05/21 06:21:05;;;;;;;4.37;1.40;;;17.80;99.90;;;;;;6090537;23;20288;-81
2022/05/21 06:23:32;;;;;;;1.93;1.20;;;17.70;99.90;;;;;;6091459;23;20204;-80
2022/05/21 06:26:00;;;;;;;6.03;1.70;;;17.00;99.90;;;;;;6093052;23;20189;-81
2022/05/21 06:28:27;;;;;;;1.40;1.00;;;17.90;99.90;;;;;;6090993;23;20193;-82
2022/05/21 06:30:53;;;;;;;2.13;1.87;;;17.50;99.90;;;;;;6092848;23;20482;-82
2022/05/21 06:33:26;;;;;;;5.70;1.70;;;17.70;99.90;;;;;;6068198;23;20197;-82
2022/05/21 06:36:18;;;;;;;3.57;1.40;;;17.70;99.90;;;;;;6093088;23;20257;-82
2022/05/21 06:38:44;;;;;;;6.83;1.73;;;17.90;99.90;;;;;;6089326;23;20332;-83
2022/05/21 06:41:11;;;;;;;3.80;1.43;;;19.00;99.90;;;;;;6091532;23;20221;-83
2022/05/21 06:43:37;;;;;;;4.60;1.23;;;19.60;99.90;;;;;;6067953;23;20268;-81
2022/05/21 06:46:03;;;;;;;5.20;1.23;;;19.20;99.90;;;;;;6092750;23;20644;-81
2022/05/21 06:48:28;;;;;;;5.13;1.37;;;18.60;99.90;;;;;;6091738;23;20238;-83
2022/05/21 06:50:54;;;;;;;1.70;1.20;;;19.40;99.90;;;;;;6092118;23;20725;-85
2022/05/21 06:53:20;;;;;;;2.87;2.07;;;19.40;99.90;;;;;;6067369;23;20214;-81
2022/05/21 06:55:46;;;;;;;4.33;1.20;;;19.60;99.90;;;;;;6092755;23;20231;-84
2022/05/21 06:58:12;;;;;;;2.13;1.00;;;19.00;99.90;;;;;;6068248;23;20233;-81
2022/05/21 07:00:38;;;;;;;5.20;1.57;;;18.20;99.90;;;;;;6067778;23;20197;-82
2022/05/21 07:03:04;;;;;;;1.43;1.33;;;18.00;99.90;;;;;;6091600;23;20275;-81
2022/05/21 07:08:24;;;;;;;7.20;1.30;;;18.60;99.90;;;;;;6091475;23;20291;-84
2022/05/21 07:10:51;;;;;;;3.73;1.40;;;18.50;99.90;;;;;;6092574;23;20200;-80
2022/05/21 07:13:18;;;;;;;11.37;1.60;;;18.30;99.90;;;;;;6091215;23;20165;-81
2022/05/21 07:15:47;;;;;;;1.60;0.60;;;18.60;99.90;;;;;;6091904;23;20180;-83
2022/05/21 07:18:16;;;;;;;5.80;1.40;;;18.40;99.90;;;;;;6071954;23;20204;-84
2022/05/21 07:20:42;;;;;;;3.57;0.90;;;18.30;99.90;;;;;;6089799;23;20259;-80
2022/05/21 07:23:08;;;;;;;3.03;1.77;;;18.50;99.90;;;;;;6065913;23;20205;-81
2022/05/21 07:25:33;;;;;;;11.43;2.07;;;19.20;99.90;;;;;;6065830;23;20163;-84
2022/05/21 07:28:00;;;;;;;3.70;0.90;;;19.90;99.90;;;;;;6092001;23;20189;-85
2022/05/21 07:30:26;;;;;;;5.83;1.33;;;18.80;99.90;;;;;;6090080;23;20220;-83
2022/05/21 07:32:55;;;;;;;2.20;1.10;;;18.30;99.90;;;;;;6090386;23;20192;-81
2022/05/21 07:35:22;;;;;;;6.30;3.43;;;18.30;99.90;;;;;;6091175;23;20279;-83
2022/05/21 07:37:48;;;;;;;5.37;1.77;;;18.70;99.90;;;;;;6066642;23;20196;-84
2022/05/21 07:40:16;;;;;;;6.07;1.70;;;18.90;99.90;;;;;;6091636;23;20317;-81
2022/05/21 07:42:42;;;;;;;4.23;1.27;;;18.70;99.90;;;;;;6092313;23;20263;-81
2022/05/21 07:45:11;;;;;;;5.53;1.43;;;19.30;99.90;;;;;;6090519;23;20204;-82
2022/05/21 07:47:37;;;;;;;1.90;1.03;;;18.20;99.90;;;;;;6091958;23;20197;-82
2022/05/21 07:50:04;;;;;;;3.07;1.00;;;18.40;99.90;;;;;;6067375;23;20194;-83
2022/05/21 07:52:30;;;;;;;5.23;1.40;;;18.40;99.90;;;;;;6066936;23;20165;-82
2022/05/21 07:54:57;;;;;;;7.40;1.93;;;18.40;99.90;;;;;;6067315;23;20161;-82
2022/05/21 07:57:23;;;;;;;8.03;0.87;;;17.80;99.90;;;;;;6090325;23;20189;-81
2022/05/21 07:59:48;;;;;;;9.10;1.97;;;18.00;99.90;;;;;;6089715;23;20335;-80
2022/05/21 08:02:16;;;;;;;6.50;2.10;;;18.30;99.90;;;;;;6066133;23;20200;-81
2022/05/21 08:04:43;;;;;;;2.53;1.90;;;18.70;99.90;;;;;;6089865;23;20220;-80
2022/05/21 08:07:09;;;;;;;4.10;1.00;;;18.90;99.90;;;;;;6090600;23;20519;-80
2022/05/21 08:09:35;;;;;;;8.10;1.63;;;18.20;99.90;;;;;;6065668;23;20208;-82
2022/05/21 08:12:01;;;;;;;7.33;1.37;;;18.20;99.90;;;;;;6090630;23;20204;-80
2022/05/21 08:14:27;;;;;;;3.23;1.40;;;18.40;99.90;;;;;;6066089;23;20199;-81
2022/05/21 08:16:53;;;;;;;6.93;2.03;;;18.20;99.90;;;;;;6090090;23;20768;-83
2022/05/21 08:19:19;;;;;;;2.10;0.93;;;18.50;99.90;;;;;;6091622;23;20589;-81
2022/05/21 08:21:45;;;;;;;1.10;1.00;;;17.80;99.90;;;;;;6066267;23;20164;-84
2022/05/21 08:29:20;;;;;;;3.13;1.10;;;18.30;99.90;;;;;;6090531;23;20685;-82
2022/05/21 08:31:46;;;;;;;5.63;1.97;;;18.00;99.90;;;;;;6091586;23;20188;-84
2022/05/21 08:34:12;;;;;;;3.57;2.00;;;17.60;99.90;;;;;;6091704;23;20776;-83
2022/05/21 08:36:38;;;;;;;2.30;1.27;;;17.90;99.90;;;;;;6066403;23;20643;-82
2022/05/21 08:39:04;;;;;;;2.87;1.20;;;17.80;99.90;;;;;;6065842;23;20211;-83
2022/05/21 08:41:32;;;;;;;1.00;0.90;;;17.90;99.90;;;;;;6089452;23;20193;-82
2022/05/21 08:44:06;;;;;;;2.40;1.17;;;17.50;99.90;;;;;;6091054;23;20192;-83
2022/05/21 08:46:56;;;;;;;2.43;1.03;;;18.10;99.90;;;;;;6091205;23;20149;-83
2022/05/21 08:49:45;;;;;;;2.47;1.17;;;18.90;99.90;;;;;;6090659;23;20188;-81
2022/05/21 08:52:19;;;;;;;1.97;1.10;;;18.30;99.90;;;;;;6090473;23;20607;-81
2022/05/21 08:54:49;;;;;;;4.97;2.00;;;18.50;99.90;;;;;;6089912;23;20180;-80
2022/05/21 08:57:21;;;;;;;3.20;1.00;;;18.90;99.90;;;;;;6088909;23;20204;-83
2022/05/21 08:59:53;;;;;;;5.00;1.70;;;19.00;99.90;;;;;;6090908;23;20204;-83
2022/05/21 09:02:28;;;;;;;4.60;1.03;;;18.50;99.90;;;;;;6089020;23;20193;-82
2022/05/21 09:04:53;;;;;;;3.47;2.13;;;18.40;99.90;;;;;;6090606;23;20196;-83
2022/05/21 09:07:23;;;;;;;2.47;1.50;;;17.90;99.90;;;;;;6064906;23;20167;-82
2022/05/21 09:10:03;;;;;;;2.67;0.93;;;18.10;99.90;;;;;;6089861;23;20203;-81
2022/05/21 09:13:05;;;;;;;1.63;0.87;;;17.40;99.90;;;;;;6089238;23;20239;-81
2022/05/21 09:18:15;;;;;;;6.03;1.83;;;17.70;99.90;;;;;;6088685;23;20204;-82
2022/05/21 09:20:58;;;;;;;2.30;1.50;;;18.50;99.90;;;;;;6064696;23;20288;-82
2022/05/21 09:23:48;;;;;;;5.60;2.13;;;19.60;99.90;;;;;;6089127;23;20287;-82
2022/05/21 09:26:14;;;;;;;5.70;1.60;;;19.00;99.90;;;;;;6081119;23;20342;-84
2022/05/21 09:28:41;;;;;;;4.17;1.30;;;18.10;99.90;;;;;;6065254;23;20226;-84
2022/05/21 09:31:09;;;;;;;2.53;1.30;;;17.60;99.90;;;;;;6090600;23;20486;-82
2022/05/21 09:33:38;;;;;;;5.70;1.73;;;18.20;99.90;;;;;;6092795;23;20216;-84
2022/05/21 09:36:05;;;;;;;5.37;1.53;;;19.20;99.90;;;;;;6089830;23;20196;-82
2022/05/21 09:38:49;;;;;;;3.43;1.23;;;19.30;99.90;;;;;;6090233;23;20344;-84
2022/05/21 09:41:28;;;;;;;2.20;1.33;;;19.10;99.90;;;;;;6090583;23;20308;-82
2022/05/21 09:46:44;;;;;;;12.47;2.00;;;18.10;99.90;;;;;;6090882;23;20192;-82
2022/05/21 09:49:16;;;;;;;3.10;1.20;;;19.20;99.90;;;;;;6091642;23;20212;-80
2022/05/21 09:51:53;;;;;;;1.97;1.17;;;18.90;99.90;;;;;;6091059;23;20216;-82
2022/05/21 09:54:38;;;;;;;6.77;1.40;;;18.10;99.90;;;;;;6091048;23;20349;-83
2022/05/21 09:57:04;;;;;;;3.30;1.50;;;18.20;99.90;;;;;;6091478;23;20197;-81
2022/05/21 09:59:33;;;;;;;6.60;1.90;;;18.50;99.90;;;;;;6067498;23;20706;-83
2022/05/21 10:02:02;;;;;;;2.63;1.00;;;19.00;99.90;;;;;;6093208;23;20435;-84
2022/05/21 10:04:40;;;;;;;15.47;2.80;;;19.30;99.90;;;;;;6092450;23;20157;-80
2022/05/21 10:10:58;;;;;;;7.03;1.43;;;18.60;99.90;;;;;;6091699;23;20156;-80
2022/05/21 10:12:59;;;;;;;9.90;2.00;;;18.00;99.90;;;;;;6093362;23;20176;-82
2022/05/21 10:15:29;;;;;;;7.33;1.73;;;18.10;99.90;;;;;;6068148;23;20219;-82
2022/05/21 10:18:22;;;;;;;11.73;2.13;;;18.80;99.90;;;;;;6093488;23;20212;-85
2022/05/21 10:20:54;;;;;;;1.97;0.87;;;18.70;99.90;;;;;;6066838;23;20217;-81
2022/05/21 10:23:49;;;;;;;5.13;1.80;;;19.00;99.90;;;;;;6064957;23;20216;-83
2022/05/21 10:26:59;;;;;;;7.30;2.07;;;19.40;99.90;;;;;;6061199;23;20648;-84
2022/05/21 10:29:56;;;;;;;10.03;2.30;;;18.30;99.90;;;;;;6057210;23;20213;-81
2022/05/21 10:32:40;;;;;;;2.03;1.40;;;18.10;99.90;;;;;;6062918;23;20201;-81
2022/05/21 10:35:30;;;;;;;7.63;2.50;;;18.70;99.90;;;;;;6063042;23;20232;-83
2022/05/21 10:38:06;;;;;;;8.23;2.40;;;18.30;99.90;;;;;;6062863;23;20657;-82
2022/05/21 10:40:40;;;;;;;10.30;2.13;;;18.80;99.90;;;;;;6063077;23;20153;-81
2022/05/21 10:43:21;;;;;;;3.23;1.60;;;18.30;99.90;;;;;;6065642;23;20169;-82
2022/05/21 10:46:13;;;;;;;7.13;1.70;;;18.20;99.90;;;;;;6063136;23;20185;-81
2022/05/21 10:48:41;;;;;;;6.60;2.10;;;18.40;99.90;;;;;;6091280;23;20215;-82
2022/05/21 10:51:35;;;;;;;9.10;2.33;;;18.60;99.90;;;;;;6092998;23;20272;-85
2022/05/21 10:54:50;;;;;;;9.73;3.20;;;19.70;99.90;;;;;;6091587;23;20600;-81
2022/05/21 10:57:28;;;;;;;4.07;1.57;;;18.90;99.90;;;;;;6025220;23;20201;-82
2022/05/21 11:00:05;;;;;;;2.67;1.23;;;18.70;99.90;;;;;;6062576;23;20276;-81
2022/05/21 11:02:43;;;;;;;2.03;1.63;;;18.60;99.90;;;;;;6062753;23;20200;-82
2022/05/21 11:05:25;;;;;;;6.67;1.90;;;18.60;99.90;;;;;;6062997;23;20200;-82
2022/05/21 11:08:06;;;;;;;6.27;2.97;;;17.90;99.90;;;;;;6063609;23;20209;-84
2022/05/21 11:10:51;;;;;;;7.33;1.90;;;18.50;99.90;;;;;;6064495;23;20160;-80
2022/05/21 11:13:33;;;;;;;1.27;0.97;;;19.20;99.90;;;;;;6062960;23;20150;-81
2022/05/21 11:16:19;;;;;;;8.60;4.40;;;19.40;99.90;;;;;;6063298;23;20150;-81
2022/05/21 11:18:53;;;;;;;7.57;2.30;;;19.30;99.90;;;;;;6092087;23;20774;-83
2022/05/21 11:21:38;;;;;;;7.27;1.97;;;19.10;99.90;;;;;;6091735;23;20208;-81
2022/05/21 11:24:45;;;;;;;8.27;2.47;;;18.90;99.90;;;;;;6091591;23;20200;-83
2022/05/21 11:27:36;;;;;;;7.90;2.60;;;18.80;99.90;;;;;;6091455;23;20280;-83
2022/05/21 11:30:14;;;;;;;6.70;3.53;;;18.70;99.90;;;;;;6092081;23;20205;-83
2022/05/21 11:38:40;;;;;;;9.30;2.93;;;18.50;99.90;;;;;;6092875;23;20201;-82
2022/05/21 11:41:47;;;;;;;6.10;1.90;;;18.20;99.90;;;;;;6090879;23;20356;-85
2022/05/21 11:47:05;;;;;;;8.50;2.57;;;18.60;99.90;;;;;;6091717;23;20189;-82
2022/05/21 11:49:55;;;;;;;3.37;1.67;;;19.10;99.90;;;;;;6090784;23;20246;-83
2022/05/21 11:52:27;;;;;;;4.80;1.67;;;18.80;99.90;;;;;;6090756;23;20157;-85
2022/05/21 11:55:10;;;;;;;8.30;2.30;;;18.90;99.90;;;;;;6091308;23;20184;-82
2022/05/21 11:57:49;;;;;;;6.43;1.60;;;18.90;99.90;;;;;;6090119;23;20229;-84
2022/05/21 12:00:15;;;;;;;3.03;1.40;;;18.50;99.90;;;;;;6090482;23;20192;-82
2022/05/21 12:03:02;;;;;;;1.03;0.97;;;18.30;99.90;;;;;;6091404;23;20529;-84
2022/05/21 12:05:41;;;;;;;5.30;1.83;;;18.40;99.90;;;;;;6080291;23;20196;-84
2022/05/21 12:08:22;;;;;;;5.03;1.40;;;18.60;99.90;;;;;;6089663;23;20259;-82
2022/05/21 12:11:09;;;;;;;3.87;1.13;;;18.60;99.90;;;;;;6090023;23;20192;-83
2022/05/21 12:13:34;;;;;;;2.87;1.37;;;18.60;99.90;;;;;;6089348;23;20200;-83
2022/05/21 12:16:21;;;;;;;4.10;1.97;;;18.70;99.90;;;;;;6090234;23;20556;-82
2022/05/21 12:18:54;;;;;;;4.23;1.80;;;18.90;99.90;;;;;;6089452;23;20188;-85
2022/05/21 12:21:40;;;;;;;7.80;1.97;;;18.90;99.90;;;;;;6089972;23;20219;-82
2022/05/21 12:24:40;;;;;;;6.00;1.20;;;19.30;99.90;;;;;;6089756;23;20631;-81
2022/05/21 12:27:21;;;;;;;3.70;1.63;;;19.00;99.90;;;;;;6089952;23;20635;-86
2022/05/21 12:29:51;;;;;;;4.37;1.70;;;18.60;99.90;;;;;;6090385;23;20201;-83
2022/05/21 12:32:26;;;;;;;1.70;1.30;;;18.50;99.90;;;;;;6067233;23;20212;-82
2022/05/21 12:35:11;;;;;;;3.80;2.00;;;18.30;99.90;;;;;;6090286;23;20192;-85
2022/05/21 12:37:45;;;;;;;1.97;1.60;;;18.10;99.90;;;;;;6092074;23;20259;-82
2022/05/21 12:40:32;;;;;;;5.50;1.80;;;18.50;99.90;;;;;;6090946;23;20152;-87
2022/05/21 12:43:10;;;;;;;1.27;1.20;;;18.70;99.90;;;;;;6066898;23;20176;-84
2022/05/21 12:45:49;;;;;;;1.33;1.20;;;18.40;99.90;;;;;;6090840;23;20378;-83
2022/05/21 12:48:26;;;;;;;3.73;1.63;;;18.10;99.90;;;;;;6091530;23;20200;-83
2022/05/21 12:50:53;;;;;;;11.27;2.03;;;18.00;99.90;;;;;;6091150;23;20192;-82
2022/05/21 12:53:46;;;;;;;4.70;1.87;;;17.70;99.90;;;;;;6089490;23;20434;-81
2022/05/21 12:56:24;;;;;;;2.90;1.33;;;18.10;99.90;;;;;;6085565;23;20192;-82
2022/05/21 12:59:10;;;;;;;9.13;2.00;;;18.50;99.90;;;;;;6094154;23;20196;-84
2022/05/21 13:01:44;;;;;;;7.60;2.60;;;18.60;99.90;;;;;;6091285;23;20204;-84
2022/05/21 13:04:31;;;;;;;4.63;2.17;;;18.50;99.90;;;;;;6090905;23;20240;-84
2022/05/21 13:07:05;;;;;;;7.57;1.93;;;18.60;99.90;;;;;;6090586;23;20207;-85
2022/05/21 13:09:35;;;;;;;7.30;1.60;;;18.30;99.90;;;;;;6091626;23;20201;-86
2022/05/21 13:12:02;;;;;;;1.80;1.17;;;18.00;99.90;;;;;;6090154;23;20193;-85
2022/05/21 13:14:34;;;;;;;7.87;1.80;;;18.10;99.90;;;;;;6066161;23;20220;-83
2022/05/21 13:17:01;;;;;;;7.93;2.50;;;18.00;99.90;;;;;;6089836;23;20188;-83
2022/05/21 13:19:46;;;;;;;2.80;1.27;;;18.00;99.90;;;;;;6089677;23;20691;-84
2022/05/21 13:22:40;;;;;;;3.10;1.40;;;17.50;99.90;;;;;;6090633;23;20248;-84
2022/05/21 13:25:12;;;;;;;2.63;1.07;;;18.00;99.90;;;;;;6091559;23;20232;-86
2022/05/21 13:27:45;;;;;;;6.00;1.23;;;17.90;99.90;;;;;;6091888;23;20192;-84
2022/05/21 13:30:16;;;;;;;2.57;1.00;;;17.30;99.90;;;;;;6092347;23;20263;-84
2022/05/21 13:32:42;;;;;;;3.53;1.53;;;17.40;99.90;;;;;;6092127;23;20268;-84
2022/05/21 13:35:28;;;;;;;5.57;1.93;;;17.80;99.90;;;;;;6092476;23;20718;-85
2022/05/21 13:37:54;;;;;;;5.87;1.40;;;18.10;99.90;;;;;;6092329;23;20240;-86
2022/05/21 13:40:46;;;;;;;1.10;1.03;;;18.00;99.90;;;;;;6092091;23;20163;-85
2022/05/21 13:43:13;;;;;;;0.60;0.60;;;17.60;99.90;;;;;;6093375;23;20265;-86